createdAt,value
2023-02-15T00:00:26.499Z,-0.53
2023-02-15T00:02:54.788Z,-0.46
2023-02-15T00:05:22.935Z,-0.46
2023-02-15T00:07:51.130Z,-0.52
2023-02-15T00:10:19.521Z,-0.46
2023-02-15T00:12:47.697Z,-0.56
2023-02-15T00:15:17.479Z,-0.52
2023-02-15T00:17:45.645Z,-0.52
2023-02-15T00:20:14.099Z,-0.52
2023-02-15T00:22:42.680Z,-0.67
2023-02-15T00:25:10.850Z,-0.63
2023-02-15T00:27:39.013Z,-0.61
2023-02-15T00:30:09.005Z,-0.62
2023-02-15T00:32:38.763Z,-0.64
2023-02-15T00:35:08.270Z,-0.69
2023-02-15T00:37:36.511Z,-0.67
2023-02-15T00:40:06.767Z,-0.66
2023-02-15T00:42:35.074Z,-0.78
2023-02-15T00:45:03.320Z,-0.76
2023-02-15T00:47:31.484Z,-0.79
2023-02-15T00:50:01.013Z,-0.65
2023-02-15T00:52:29.222Z,-0.71
2023-02-15T00:54:57.890Z,-0.68
2023-02-15T00:57:26.151Z,-0.69
2023-02-15T00:59:54.313Z,-0.66
2023-02-15T01:02:47.517Z,-0.73
2023-02-15T01:05:19.494Z,-0.76
2023-02-15T01:07:52.525Z,-0.80
2023-02-15T01:10:21.615Z,-0.99
2023-02-15T01:12:50.067Z,-0.89
2023-02-15T01:15:18.303Z,-0.94
2023-02-15T01:17:53.049Z,-0.89
2023-02-15T01:20:28.453Z,-0.92
2023-02-15T01:22:57.596Z,-0.98
2023-02-15T01:25:26.928Z,-1.05
2023-02-15T01:27:57.035Z,-1.09
2023-02-15T01:30:25.292Z,-1.17
2023-02-15T01:32:53.749Z,-1.56
2023-02-15T01:35:22.186Z,-1.08
2023-02-15T01:37:51.776Z,-1.20
2023-02-15T01:40:21.532Z,-1.15
2023-02-15T01:42:53.632Z,-1.53
2023-02-15T01:45:26.202Z,-1.26
2023-02-15T01:48:00.195Z,-1.23
2023-02-15T01:50:35.655Z,-1.10
2023-02-15T01:53:11.203Z,-1.16
2023-02-15T01:55:43.423Z,-1.25
2023-02-15T01:58:12.176Z,-1.19
2023-02-15T02:00:40.560Z,-1.13
2023-02-15T02:03:09.079Z,-1.18
2023-02-15T02:05:37.779Z,-1.08
2023-02-15T02:08:09.479Z,-1.06
2023-02-15T02:10:38.523Z,-1.15
2023-02-15T02:13:08.694Z,-1.13
2023-02-15T02:15:49.571Z,-1.10
2023-02-15T02:18:38.499Z,-1.09
2023-02-15T02:22:18.126Z,-0.52
2023-02-15T02:25:21.138Z,-0.89
2023-02-15T02:27:52.995Z,-1.01
2023-02-15T02:31:03.837Z,-1.08
2023-02-15T02:33:51.974Z,-1.11
2023-02-15T02:36:29.368Z,-1.38
2023-02-15T02:39:15.560Z,-1.24
2023-02-15T02:41:55.698Z,-1.27
2023-02-15T02:44:28.902Z,-1.08
2023-02-15T02:47:02.094Z,-1.08
2023-02-15T02:49:38.613Z,-0.94
2023-02-15T02:52:29.279Z,-1.95
2023-02-15T02:54:58.848Z,-0.96
2023-02-15T02:57:31.289Z,-1.02
2023-02-15T03:00:03.224Z,-0.87
2023-02-15T03:02:37.354Z,-0.83
2023-02-15T03:05:11.755Z,-0.83
2023-02-15T03:08:10.641Z,-0.82
2023-02-15T03:10:41.225Z,-1.56
2023-02-15T03:13:10.956Z,-0.82
2023-02-15T03:15:59.256Z,-0.91
2023-02-15T03:18:34.069Z,-1.47
2023-02-15T03:21:05.338Z,-0.99
2023-02-15T03:23:36.854Z,-1.05
2023-02-15T03:26:09.043Z,-1.05
2023-02-15T03:28:44.678Z,-1.03
2023-02-15T03:31:16.739Z,-1.08
2023-02-15T03:33:52.076Z,-1.09
2023-02-15T03:36:26.752Z,-1.08
2023-02-15T03:39:04.301Z,-0.91
2023-02-15T03:41:57.000Z,-0.85
2023-02-15T03:44:30.226Z,-0.94
2023-02-15T03:47:06.277Z,-0.86
2023-02-15T03:49:44.274Z,-0.87
2023-02-15T03:52:14.274Z,-0.78
2023-02-15T03:54:49.702Z,-0.90
2023-02-15T03:57:40.370Z,-0.97
2023-02-15T04:00:34.489Z,-0.95
2023-02-15T04:03:25.802Z,-0.88
2023-02-15T04:05:54.050Z,-0.90
2023-02-15T04:08:44.073Z,-0.91
2023-02-15T04:11:11.305Z,-0.88
2023-02-15T04:13:39.506Z,-0.95
2023-02-15T04:16:07.968Z,-0.95
2023-02-15T04:18:59.924Z,-0.94
2023-02-15T04:21:47.854Z,-0.99
2023-02-15T04:24:35.533Z,-1.07
2023-02-15T04:27:05.646Z,-1.10
2023-02-15T04:29:34.001Z,-1.04
2023-02-15T04:32:03.599Z,-1.04
2023-02-15T04:34:31.900Z,-1.12
2023-02-15T04:37:00.139Z,-1.02
2023-02-15T04:39:29.704Z,-1.09
2023-02-15T04:41:57.905Z,-1.13
2023-02-15T04:44:26.132Z,-1.31
2023-02-15T04:46:54.314Z,-1.26
2023-02-15T04:49:22.554Z,-1.35
2023-02-15T04:51:51.186Z,-1.35
2023-02-15T04:54:19.347Z,-1.30
2023-02-15T04:56:48.835Z,-1.36
2023-02-15T04:59:17.179Z,-1.40
2023-02-15T05:01:47.248Z,-1.43
2023-02-15T05:04:21.266Z,-1.42
2023-02-15T05:06:54.483Z,-1.52
2023-02-15T05:09:22.656Z,-1.51
2023-02-15T05:11:52.384Z,-1.67
2023-02-15T05:14:20.678Z,-1.87
2023-02-15T05:16:48.979Z,-1.90
2023-02-15T05:19:17.424Z,-1.90
2023-02-15T05:21:45.572Z,-1.94
2023-02-15T05:24:34.590Z,-1.96
2023-02-15T05:27:21.605Z,-2.11
2023-02-15T05:29:49.903Z,-2.02
2023-02-15T05:32:18.288Z,-1.84
2023-02-15T05:34:46.565Z,-1.98
2023-02-15T05:37:14.771Z,-1.91
2023-02-15T05:39:43.639Z,-1.83
2023-02-15T05:42:13.193Z,-2.16
2023-02-15T05:44:41.953Z,-1.91
2023-02-15T05:47:10.185Z,-1.80
2023-02-15T05:49:38.333Z,-1.74
2023-02-15T05:52:06.836Z,-1.81
2023-02-15T05:54:35.011Z,-1.90
2023-02-15T05:57:03.244Z,-1.88
2023-02-15T05:59:32.770Z,-1.85
2023-02-15T06:02:01.046Z,-1.77
2023-02-15T06:04:29.538Z,-1.84
2023-02-15T06:06:57.676Z,-1.98
2023-02-15T06:09:25.825Z,-1.93
2023-02-15T06:11:54.026Z,-1.94
2023-02-15T06:14:22.245Z,-2.01
2023-02-15T06:16:51.849Z,-1.90
2023-02-15T06:19:20.065Z,-1.95
2023-02-15T06:21:48.485Z,-2.04
2023-02-15T06:24:16.788Z,-1.96
2023-02-15T06:26:44.985Z,-2.01
2023-02-15T06:29:13.171Z,-2.06
2023-02-15T06:31:41.461Z,-2.07
2023-02-15T06:34:11.078Z,-2.05
2023-02-15T06:36:39.216Z,-1.97
2023-02-15T06:39:07.506Z,-2.05
2023-02-15T06:41:35.700Z,-2.36
2023-02-15T06:44:03.929Z,-1.94
2023-02-15T06:46:32.093Z,-1.90
2023-02-15T06:49:00.310Z,-1.96
2023-02-15T06:51:29.881Z,-2.08
2023-02-15T06:53:58.474Z,-1.94
2023-02-15T06:56:27.058Z,-2.03
2023-02-15T06:58:55.388Z,-1.90
2023-02-15T07:01:23.637Z,-1.73
2023-02-15T07:03:55.385Z,-1.88
2023-02-15T07:06:36.256Z,-1.81
2023-02-15T07:09:05.234Z,-1.81
2023-02-15T07:11:51.051Z,-1.81
2023-02-15T07:14:19.335Z,-1.69
2023-02-15T07:16:47.532Z,-1.66
2023-02-15T07:19:15.804Z,-1.56
2023-02-15T07:21:46.548Z,-1.59
2023-02-15T07:24:14.888Z,-1.55
2023-02-15T07:26:43.144Z,-1.53
2023-02-15T07:29:11.369Z,-1.50
2023-02-15T07:31:39.547Z,-1.56
2023-02-15T07:34:08.603Z,-1.41
2023-02-15T07:36:36.845Z,-1.34
2023-02-15T07:39:06.422Z,-1.29
2023-02-15T07:41:34.817Z,-1.14
2023-02-15T07:44:03.077Z,-1.09
2023-02-15T07:46:31.344Z,-0.89
2023-02-15T07:48:59.617Z,-1.07
2023-02-15T07:51:27.763Z,-1.03
2023-02-15T07:53:56.280Z,-0.87
2023-02-15T07:56:25.808Z,-0.83
2023-02-15T07:58:54.898Z,-0.62
2023-02-15T08:01:25.863Z,-0.61
2023-02-15T08:03:55.374Z,-0.62
2023-02-15T08:06:25.438Z,-1.26
2023-02-15T08:08:54.037Z,-0.47
2023-02-15T08:11:30.085Z,-0.51
2023-02-15T08:14:00.994Z,-0.48
2023-02-15T08:16:33.220Z,-0.26
2023-02-15T08:19:04.035Z,0.33
2023-02-15T08:21:33.292Z,-0.07
2023-02-15T08:24:01.597Z,-0.08
2023-02-15T08:26:32.585Z,-0.02
2023-02-15T08:29:01.586Z,0.03
2023-02-15T08:31:30.074Z,0.23
2023-02-15T08:33:59.389Z,0.17
2023-02-15T08:36:33.087Z,0.35
2023-02-15T08:39:03.762Z,0.29
2023-02-15T08:41:36.519Z,0.64
2023-02-15T08:44:08.028Z,0.74
2023-02-15T08:46:39.051Z,0.75
2023-02-15T08:49:07.866Z,0.25
2023-02-15T08:51:39.237Z,0.86
2023-02-15T08:54:09.883Z,0.98
2023-02-15T08:56:41.594Z,0.87
2023-02-15T08:59:16.128Z,1.05
2023-02-15T09:01:44.622Z,1.13
2023-02-15T09:04:14.143Z,1.06
2023-02-15T09:06:44.112Z,1.26
2023-02-15T09:09:13.618Z,1.36
2023-02-15T09:11:45.779Z,1.31
2023-02-15T09:14:16.530Z,1.47
2023-02-15T09:16:49.583Z,1.55
2023-02-15T09:19:18.347Z,1.60
2023-02-15T09:21:46.823Z,1.62
2023-02-15T09:24:17.429Z,1.76
2023-02-15T09:26:48.669Z,1.91
2023-02-15T09:29:19.309Z,1.93
2023-02-15T09:31:49.914Z,2.09
2023-02-15T09:34:21.168Z,2.31
2023-02-15T09:36:49.870Z,2.34
2023-02-15T09:39:20.269Z,2.57
2023-02-15T09:42:38.254Z,2.69
2023-02-15T09:45:19.995Z,2.91
2023-02-15T09:48:21.129Z,2.87
2023-02-15T09:51:04.318Z,3.20
2023-02-15T09:53:56.025Z,3.16
2023-02-15T09:56:37.878Z,3.32
2023-02-15T09:59:16.199Z,3.63
2023-02-15T10:01:57.753Z,3.63
2023-02-15T10:04:48.599Z,3.80
2023-02-15T10:07:37.365Z,3.63
2023-02-15T10:10:18.813Z,4.07
2023-02-15T10:13:02.081Z,4.19
2023-02-15T10:15:52.987Z,4.32
2023-02-15T10:18:43.855Z,4.45
2023-02-15T10:21:26.955Z,4.45
2023-02-15T10:24:25.621Z,4.65
2023-02-15T10:26:58.580Z,4.65
2023-02-15T10:29:37.309Z,4.78
2023-02-15T10:32:22.876Z,4.93
2023-02-15T10:34:56.693Z,5.08
2023-02-15T10:37:54.527Z,5.21
2023-02-15T10:40:32.005Z,5.37
2023-02-15T10:43:18.444Z,5.38
2023-02-15T10:45:59.512Z,5.51
2023-02-15T10:48:52.244Z,5.56
2023-02-15T10:51:37.026Z,5.71
2023-02-15T10:54:20.733Z,5.96
2023-02-15T10:57:03.384Z,6.02
2023-02-15T10:59:54.357Z,6.11
2023-02-15T11:03:02.035Z,6.33
2023-02-15T11:05:43.531Z,6.43
2023-02-15T11:08:13.826Z,6.43
2023-02-15T11:10:46.378Z,6.32
2023-02-15T11:13:18.453Z,6.54
2023-02-15T11:15:53.774Z,6.51
2023-02-15T11:18:28.459Z,6.73
2023-02-15T11:21:03.419Z,6.91
2023-02-15T11:23:34.418Z,6.99
2023-02-15T11:26:06.719Z,7.05
2023-02-15T11:28:40.131Z,7.22
2023-02-15T11:31:19.541Z,7.33
2023-02-15T11:33:52.964Z,6.84
2023-02-15T11:36:27.463Z,7.36
2023-02-15T11:39:03.227Z,7.70
2023-02-15T11:41:39.891Z,7.99
2023-02-15T11:44:14.427Z,7.80
2023-02-15T11:46:42.706Z,7.33
2023-02-15T11:49:24.633Z,8.17
2023-02-15T11:51:55.337Z,8.01
2023-02-15T11:54:30.236Z,8.22
2023-02-15T11:57:03.746Z,8.43
2023-02-15T11:59:38.603Z,8.58
2023-02-15T12:02:20.065Z,8.73
2023-02-15T12:04:54.304Z,8.96
2023-02-15T12:07:28.525Z,9.01
2023-02-15T12:10:08.021Z,9.18
2023-02-15T12:12:37.896Z,9.35
2023-02-15T12:15:09.036Z,9.54
2023-02-15T12:17:41.368Z,9.71
2023-02-15T12:20:27.001Z,9.66
2023-02-15T12:23:03.287Z,9.89
2023-02-15T12:25:38.904Z,9.75
2023-02-15T12:28:29.171Z,10.00
2023-02-15T12:30:58.534Z,10.16
2023-02-15T12:33:32.303Z,10.29
2023-02-15T12:36:04.526Z,10.29
2023-02-15T12:38:39.126Z,10.41
2023-02-15T12:41:24.936Z,10.62
2023-02-15T12:44:14.365Z,10.71
2023-02-15T12:46:42.894Z,10.69
2023-02-15T12:49:20.996Z,10.81
2023-02-15T12:51:53.599Z,11.22
2023-02-15T12:54:41.067Z,11.18
2023-02-15T12:57:23.948Z,11.32
2023-02-15T12:59:54.628Z,11.66
2023-02-15T13:05:37.743Z,12.06
2023-02-15T13:08:16.704Z,12.31
2023-02-15T13:10:58.638Z,12.39
2023-02-15T13:13:30.372Z,12.48
2023-02-15T13:16:03.903Z,12.79
2023-02-15T13:18:35.737Z,12.48
2023-02-15T13:21:21.334Z,12.70
2023-02-15T13:23:54.443Z,12.46
2023-02-15T13:26:27.174Z,12.85
2023-02-15T13:28:58.686Z,13.37
2023-02-15T13:31:33.259Z,13.64
2023-02-15T13:34:11.783Z,13.91
2023-02-15T13:36:51.534Z,14.06
2023-02-15T13:39:29.370Z,14.35
2023-02-15T13:42:08.132Z,14.40
2023-02-15T13:45:02.126Z,14.78
2023-02-15T13:47:43.461Z,14.89
2023-02-15T13:50:33.892Z,15.11
2023-02-15T13:53:36.464Z,15.05
2023-02-15T13:56:14.470Z,15.42
2023-02-15T13:59:22.274Z,15.62
2023-02-15T14:02:00.200Z,15.83
2023-02-15T14:04:51.978Z,15.77
2023-02-15T14:07:35.716Z,16.14
2023-02-15T14:10:26.372Z,16.29
2023-02-15T14:13:16.886Z,16.45
2023-02-15T14:15:51.619Z,16.36
2023-02-15T14:18:27.807Z,16.55
2023-02-15T14:21:08.550Z,16.51
2023-02-15T14:23:50.087Z,16.55
2023-02-15T14:26:28.986Z,16.45
2023-02-15T14:29:09.872Z,16.64
2023-02-15T14:31:44.085Z,16.33
2023-02-15T14:34:24.263Z,16.46
2023-02-15T14:36:54.324Z,16.50
2023-02-15T14:39:54.335Z,16.26
2023-02-15T14:42:27.803Z,16.13
2023-02-15T14:45:03.829Z,16.10
2023-02-15T14:47:38.863Z,15.68
2023-02-15T14:50:47.609Z,15.93
2023-02-15T14:53:39.226Z,15.77
2023-02-15T14:56:25.261Z,15.74
2023-02-15T14:59:17.234Z,15.70
2023-02-15T15:01:59.396Z,15.75
2023-02-15T15:04:38.265Z,15.71
2023-02-15T15:07:17.030Z,15.49
2023-02-15T15:09:47.869Z,15.71
2023-02-15T15:12:39.494Z,15.78
2023-02-15T15:15:09.939Z,15.61
2023-02-15T15:18:05.184Z,15.57
2023-02-15T15:20:48.628Z,15.49
2023-02-15T15:23:45.441Z,15.33
2023-02-15T15:26:37.824Z,15.93
2023-02-15T15:29:07.964Z,15.40
2023-02-15T15:31:50.542Z,15.52
2023-02-15T15:34:30.344Z,15.58
2023-02-15T15:37:54.425Z,15.68
2023-02-15T15:41:20.950Z,15.36
2023-02-15T15:44:29.430Z,15.46
2023-02-15T15:47:19.562Z,15.18
2023-02-15T15:49:48.437Z,15.37
2023-02-15T15:52:20.903Z,15.35
2023-02-15T15:54:55.043Z,15.14
2023-02-15T15:57:29.806Z,14.88
2023-02-15T16:00:00.712Z,14.87
2023-02-15T16:02:29.988Z,14.70
2023-02-15T16:05:10.173Z,14.16
2023-02-15T16:07:43.344Z,14.01
2023-02-15T16:10:24.397Z,13.46
2023-02-15T16:12:54.190Z,12.96
2023-02-15T16:15:26.133Z,12.52
2023-02-15T16:17:57.578Z,11.54
2023-02-15T16:20:29.125Z,10.99
2023-02-15T16:23:17.324Z,9.88
2023-02-15T16:25:56.517Z,10.09
2023-02-15T16:28:24.821Z,9.61
2023-02-15T16:31:08.392Z,9.35
2023-02-15T16:33:39.072Z,9.19
2023-02-15T16:36:12.645Z,8.93
2023-02-15T16:39:21.549Z,8.40
2023-02-15T16:41:50.375Z,8.32
2023-02-15T16:44:21.907Z,8.11
2023-02-15T16:46:54.855Z,7.75
2023-02-15T16:49:27.903Z,7.52
2023-02-15T16:51:59.746Z,7.09
2023-02-15T16:54:32.221Z,7.00
2023-02-15T16:57:00.883Z,6.81
2023-02-15T16:59:36.496Z,6.77
2023-02-15T17:02:08.054Z,6.67
2023-02-15T17:04:38.969Z,6.54
2023-02-15T17:07:19.092Z,6.38
2023-02-15T17:10:01.753Z,6.31
2023-02-15T17:12:47.804Z,6.26
2023-02-15T17:15:31.570Z,5.85
2023-02-15T17:18:05.730Z,5.72
2023-02-15T17:20:37.458Z,5.86
2023-02-15T17:23:06.619Z,5.62
2023-02-15T17:25:43.211Z,5.58
2023-02-15T17:28:19.854Z,5.44
2023-02-15T17:30:49.271Z,5.31
2023-02-15T17:33:29.761Z,5.13
2023-02-15T17:36:11.270Z,5.11
2023-02-15T17:38:40.561Z,4.95
2023-02-15T17:41:10.772Z,4.90
2023-02-15T17:43:38.987Z,4.89
2023-02-15T17:46:07.223Z,4.73
2023-02-15T17:48:37.834Z,4.49
2023-02-15T17:51:13.224Z,4.43
2023-02-15T17:53:41.880Z,4.26
2023-02-15T17:56:10.622Z,4.29
2023-02-15T17:58:39.819Z,4.04
2023-02-15T18:01:32.704Z,4.00
2023-02-15T18:04:18.869Z,3.91
2023-02-15T18:07:04.796Z,4.00
2023-02-15T18:09:50.736Z,3.75
2023-02-15T18:12:24.965Z,3.37
2023-02-15T18:14:54.274Z,3.28
2023-02-15T18:17:28.664Z,3.15
2023-02-15T18:19:57.253Z,3.00
2023-02-15T18:22:25.596Z,2.96
2023-02-15T18:24:53.778Z,2.76
2023-02-15T18:27:23.394Z,2.78
2023-02-15T18:29:51.824Z,2.50
2023-02-15T18:32:26.664Z,2.64
2023-02-15T18:34:58.636Z,2.59
2023-02-15T18:37:31.364Z,2.54
2023-02-15T18:40:00.704Z,2.38
2023-02-15T18:42:34.293Z,2.35
2023-02-15T18:45:13.110Z,2.25
2023-02-15T18:47:42.323Z,2.25
2023-02-15T18:50:11.032Z,2.14
2023-02-15T18:52:40.257Z,2.27
2023-02-15T18:55:18.854Z,2.14
2023-02-15T18:57:50.705Z,2.19
2023-02-15T19:00:22.176Z,2.03
2023-02-15T19:02:50.371Z,1.80
2023-02-15T19:08:19.788Z,1.85
2023-02-15T19:10:48.094Z,1.75
2023-02-15T19:13:18.083Z,1.69
2023-02-15T19:15:46.268Z,1.72
2023-02-15T19:18:14.443Z,1.72
2023-02-15T19:20:46.298Z,1.57
2023-02-15T19:23:20.010Z,1.48
2023-02-15T19:25:49.746Z,1.60
2023-02-15T19:28:26.286Z,1.44
2023-02-15T19:30:54.460Z,1.38
2023-02-15T19:33:23.731Z,1.46
2023-02-15T19:35:57.142Z,1.34
2023-02-15T19:38:29.652Z,1.28
2023-02-15T19:41:04.089Z,1.30
2023-02-15T19:43:33.660Z,0.43
2023-02-15T19:46:02.102Z,1.11
2023-02-15T19:48:30.499Z,1.18
2023-02-15T19:50:59.203Z,1.09
2023-02-15T19:53:29.425Z,1.08
2023-02-15T19:55:57.563Z,1.12
2023-02-15T19:58:25.686Z,1.06
2023-02-15T20:00:55.276Z,1.10
2023-02-15T20:03:23.533Z,1.01
2023-02-15T20:05:51.792Z,0.95
2023-02-15T20:08:23.254Z,1.05
2023-02-15T20:10:51.677Z,0.91
2023-02-15T20:13:21.385Z,0.94
2023-02-15T20:15:51.345Z,0.86
2023-02-15T20:18:22.605Z,0.76
2023-02-15T20:20:55.765Z,0.88
2023-02-15T20:23:29.044Z,0.67
2023-02-15T20:26:01.230Z,0.56
2023-02-15T20:28:32.572Z,0.65
2023-02-15T20:31:01.382Z,0.54
2023-02-15T20:33:31.050Z,0.57
2023-02-15T20:36:00.704Z,0.59
2023-02-15T20:38:31.320Z,0.62
2023-02-15T20:41:18.680Z,0.60
2023-02-15T20:43:47.200Z,0.54
2023-02-15T20:46:15.404Z,0.55
2023-02-15T20:48:45.098Z,0.42
2023-02-15T20:51:18.680Z,0.47
2023-02-15T20:53:48.386Z,0.54
2023-02-15T20:56:21.341Z,0.35
2023-02-15T20:58:50.422Z,0.20
2023-02-15T21:01:20.148Z,0.24
2023-02-15T21:03:51.284Z,0.29
2023-02-15T21:06:24.792Z,0.33
2023-02-15T21:08:53.120Z,0.44
2023-02-15T21:11:23.659Z,0.45
2023-02-15T21:13:52.250Z,0.42
2023-02-15T21:16:20.782Z,0.33
2023-02-15T21:18:53.641Z,0.47
2023-02-15T21:21:24.648Z,0.36
2023-02-15T21:23:54.214Z,-0.43
2023-02-15T21:26:24.117Z,0.30
2023-02-15T21:28:52.377Z,0.18
2023-02-15T21:31:23.815Z,0.21
2023-02-15T21:33:53.500Z,0.03
2023-02-15T21:36:26.830Z,-0.22
2023-02-15T21:38:55.283Z,0.66
2023-02-15T21:41:43.118Z,-0.06
2023-02-15T21:44:36.270Z,-0.13
2023-02-15T21:47:22.876Z,-0.14
2023-02-15T21:49:52.956Z,-0.16
2023-02-15T21:52:23.981Z,-0.23
2023-02-15T21:54:52.179Z,-0.31
2023-02-15T21:57:22.294Z,-0.25
2023-02-15T21:59:50.699Z,-0.31
2023-02-15T22:02:29.731Z,-0.28
2023-02-15T22:05:00.188Z,0.00
2023-02-15T22:07:28.377Z,-0.47
2023-02-15T22:09:56.566Z,-0.47
2023-02-15T22:12:24.755Z,-0.36
2023-02-15T22:14:54.696Z,-0.33
2023-02-15T22:17:26.755Z,-0.49
2023-02-15T22:19:54.995Z,-0.42
2023-02-15T22:22:26.042Z,-0.25
2023-02-15T22:24:54.387Z,-0.29
2023-02-15T22:27:26.560Z,-0.26
2023-02-15T22:29:56.089Z,-0.30
2023-02-15T22:32:27.265Z,-0.45
2023-02-15T22:34:56.100Z,-1.94
2023-02-15T22:37:25.603Z,-0.53
2023-02-15T22:39:54.083Z,-0.51
2023-02-15T22:42:27.207Z,-0.58
2023-02-15T22:44:57.651Z,-0.57
2023-02-15T22:47:28.195Z,-0.49
2023-02-15T22:49:56.907Z,-0.79
2023-02-15T22:52:27.139Z,-0.54
2023-02-15T22:54:55.762Z,-0.66
2023-02-15T22:57:30.365Z,-0.65
2023-02-15T22:59:59.414Z,-0.65
2023-02-15T23:02:54.044Z,-0.68
2023-02-15T23:05:30.423Z,-0.57
2023-02-15T23:08:00.740Z,-0.67
2023-02-15T23:10:31.341Z,-0.58
2023-02-15T23:13:27.315Z,-0.74
2023-02-15T23:16:01.051Z,-0.79
2023-02-15T23:18:33.280Z,-0.83
2023-02-15T23:21:05.531Z,-0.91
2023-02-15T23:23:38.826Z,-0.90
2023-02-15T23:26:17.396Z,-1.02
2023-02-15T23:28:46.140Z,-0.94
2023-02-15T23:31:19.632Z,-0.88
2023-02-15T23:33:48.624Z,-1.26
2023-02-15T23:36:28.833Z,-0.84
2023-02-15T23:39:23.458Z,-1.23
2023-02-15T23:41:51.551Z,-0.77
2023-02-15T23:44:20.664Z,-0.64
2023-02-15T23:46:50.853Z,-0.84
2023-02-15T23:49:20.649Z,-0.69
2023-02-15T23:51:52.101Z,-1.53
2023-02-15T23:54:26.710Z,-0.83
2023-02-15T23:57:00.886Z,-0.77
2023-02-15T23:59:32.187Z,-1.01
